Time;durP1;ratioP1;P1;durP2;ratioP2;P2;SDS_P1;SDS_P2;PMS_P1;PMS_P2;Temp;Humidity;BMP_temperature;BMP_pressure;BME280_temperature;BME280_humidity;BME280_pressure;Samples;Min_cycle;Max_cycle;Signal;HPM_P1;HPM_P2
2023/10/02 00:03:39;;;;;;;0.50;0.50;;;;;;;17.57;97.95;100937.88;4987390;28;20128;-80
2023/10/02 00:06:11;;;;;;;6.18;1.75;;;;;;;17.30;100.00;100916.28;4988551;28;20042;-79
2023/10/02 00:08:42;;;;;;;1.90;1.77;;;;;;;17.34;100.00;100933.03;4987717;28;20042;-81
2023/10/02 00:11:41;;;;;;;0.30;0.30;;;;;;;17.18;100.00;100928.00;4988484;28;20048;-77
2023/10/02 00:14:18;;;;;;;0.70;0.63;;;;;;;17.17;100.00;100920.09;4983024;28;20383;-81
2023/10/02 00:17:00;;;;;;;1.02;0.85;;;;;;;17.30;100.00;100998.50;5017708;28;20527;-78
2023/10/02 00:19:27;;;;;;;1.73;1.15;;;;;;;16.52;100.00;100897.34;4981819;28;20133;-80
2023/10/02 00:21:57;;;;;;;2.28;1.20;;;;;;;16.88;100.00;101001.91;4981397;28;20038;-78
2023/10/02 00:24:27;;;;;;;2.58;2.38;;;;;;;16.42;100.00;100924.91;4988138;28;20121;-81
2023/10/02 00:26:58;;;;;;;2.17;1.92;;;;;;;16.66;100.00;101022.53;4982141;28;20500;-80
2023/10/02 00:29:25;;;;;;;1.05;0.77;;;;;;;16.48;100.00;100990.13;4987728;28;20042;-85
2023/10/02 00:31:51;;;;;;;0.45;0.45;;;;;;;16.45;100.00;101005.19;4987706;28;20777;-84
2023/10/02 00:34:30;;;;;;;0.95;0.82;;;;;;;16.40;100.00;101022.06;4979219;28;20053;-85
2023/10/02 00:37:01;;;;;;;2.92;2.20;;;;;;;16.41;100.00;101008.78;4982392;28;20049;-83
2023/10/02 00:39:32;;;;;;;0.75;0.50;;;;;;;16.58;100.00;101023.56;4987895;28;20030;-81
2023/10/02 00:42:24;;;;;;;0.85;0.50;;;;;;;15.87;100.00;100931.00;4980171;28;20050;-81
2023/10/02 00:44:57;;;;;;;3.45;2.00;;;;;;;16.01;100.00;100913.16;4986836;28;20038;-82
2023/10/02 00:47:40;;;;;;;0.70;0.70;;;;;;;16.29;100.00;100969.22;4987338;28;20038;-84
2023/10/02 00:50:10;;;;;;;1.33;0.95;;;;;;;15.72;100.00;100926.78;4983477;28;20046;-85
2023/10/02 00:52:40;;;;;;;0.90;0.88;;;;;;;15.71;100.00;100931.22;4985998;28;20414;-81
2023/10/02 00:55:12;;;;;;;2.20;2.10;;;;;;;16.50;100.00;101012.19;4987596;28;20042;-80
2023/10/02 00:57:39;;;;;;;0.30;0.30;;;;;;;16.39;100.00;101012.38;4987518;28;20031;-81
2023/10/02 01:00:17;;;;;;;1.13;0.88;;;;;;;16.05;100.00;100922.81;4980194;28;20039;-79
2023/10/02 01:02:46;;;;;;;0.22;0.22;;;;;;;15.89;100.00;100913.31;4986814;28;20501;-78
2023/10/02 01:05:21;;;;;;;2.28;1.90;;;;;;;16.12;100.00;100926.25;4987260;28;20129;-78
2023/10/02 01:07:48;;;;;;;0.30;0.30;;;;;;;16.13;100.00;100952.69;4986653;28;20046;-79
2023/10/02 01:10:20;;;;;;;1.25;1.15;;;;;;;16.45;100.00;101028.16;4986912;28;20049;-81
2023/10/02 01:12:49;;;;;;;3.55;2.20;;;;;;;15.55;100.00;100938.44;4986232;28;20046;-79
2023/10/02 01:15:19;;;;;;;4.47;2.50;;;;;;;15.84;100.00;100931.91;4987493;28;20069;-80
2023/10/02 01:17:49;;;;;;;0.75;0.75;;;;;;;16.18;100.00;100990.59;4986574;28;20592;-82
2023/10/02 01:20:20;;;;;;;2.03;1.38;;;;;;;16.07;100.00;100954.56;4986875;28;20073;-82
2023/10/02 01:22:52;;;;;;;1.63;1.53;;;;;;;15.67;100.00;100957.69;4986420;28;20050;-81
2023/10/02 01:25:23;;;;;;;5.53;1.05;;;;;;;15.79;100.00;101032.53;4987019;28;20045;-81
2023/10/02 01:27:51;;;;;;;0.38;0.38;;;;;;;15.28;100.00;100951.94;4986849;28;20029;-84
2023/10/02 01:30:20;;;;;;;0.95;0.77;;;;;;;15.14;100.00;100957.38;4988813;28;20080;-83
2023/10/02 01:33:15;;;;;;;2.53;1.13;;;;;;;15.83;100.00;101073.09;4983231;28;20127;-82
2023/10/02 01:36:02;;;;;;;2.10;1.45;;;;;;;15.98;100.00;101075.53;4986646;28;20077;-78
2023/10/02 01:38:32;;;;;;;0.40;0.32;;;;;;;15.86;100.00;101072.16;4981296;28;20053;-78
2023/10/02 01:41:08;;;;;;;0.75;0.68;;;;;;;15.68;100.00;100986.75;4986894;28;20057;-80
2023/10/02 01:43:45;;;;;;;0.93;0.85;;;;;;;16.24;100.00;101069.06;4986675;28;20495;-80
2023/10/02 01:46:17;;;;;;;1.10;1.00;;;;;;;15.97;100.00;101075.56;4982808;28;20178;-82
2023/10/02 01:48:48;;;;;;;1.13;1.00;;;;;;;16.12;100.00;101085.09;4984254;28;20035;-81
2023/10/02 01:51:15;;;;;;;1.98;1.50;;;;;;;15.76;100.00;101052.88;4985978;28;20041;-81
2023/10/02 01:53:54;;;;;;;1.33;1.05;;;;;;;15.31;100.00;100965.13;4985100;28;20517;-81
2023/10/02 01:56:29;;;;;;;4.53;2.03;;;;;;;15.49;100.00;100978.16;4971118;28;20141;-81
2023/10/02 01:59:09;;;;;;;0.50;0.50;;;;;;;15.38;100.00;101001.19;4983316;28;20129;-82
2023/10/02 02:01:46;;;;;;;1.08;1.00;;;;;;;15.65;100.00;101097.91;5017676;28;20485;-80
2023/10/02 02:04:14;;;;;;;1.55;1.38;;;;;;;15.69;100.00;101082.91;4985437;28;20056;-81
2023/10/02 02:06:51;;;;;;;1.27;1.13;;;;;;;15.87;100.00;101098.59;4986255;28;20069;-81
2023/10/02 02:09:23;;;;;;;1.50;0.95;;;;;;;15.59;100.00;101097.97;4987081;28;20041;-82
2023/10/02 02:12:06;;;;;;;0.88;0.80;;;;;;;15.62;100.00;101066.22;4986092;28;20128;-81
2023/10/02 02:14:52;;;;;;;0.60;0.60;;;;;;;15.62;100.00;101063.56;4984107;28;20053;-82
2023/10/02 02:17:35;;;;;;;4.05;2.00;;;;;;;16.02;100.00;101102.88;4979053;28;20069;-81
2023/10/02 02:20:10;;;;;;;0.85;0.60;;;;;;;16.00;100.00;101102.88;4982150;28;20046;-83
2023/10/02 02:22:36;;;;;;;0.53;0.53;;;;;;;15.81;100.00;101028.09;4984401;28;20490;-83
2023/10/02 02:25:04;;;;;;;0.43;0.40;;;;;;;15.76;100.00;101022.00;4984389;28;21013;-83
2023/10/02 02:27:29;;;;;;;1.60;1.50;;;;;;;15.97;100.00;101073.81;4989091;28;20120;-79
2023/10/02 02:29:57;;;;;;;0.82;0.45;;;;;;;15.68;100.00;101002.63;4992046;28;20427;-80
2023/10/02 02:32:44;;;;;;;3.80;1.52;;;;;;;15.35;100.00;100999.47;4996712;28;20050;-81
2023/10/02 02:35:13;;;;;;;0.63;0.55;;;;;;;15.25;100.00;100994.31;4997601;28;20134;-83
2023/10/02 02:37:41;;;;;;;0.50;0.43;;;;;;;15.46;100.00;101030.22;4989580;28;20129;-84
2023/10/02 02:40:23;;;;;;;2.35;1.73;;;;;;;15.90;100.00;101079.19;4989579;28;20126;-85
2023/10/02 02:42:52;;;;;;;0.57;0.43;;;;;;;15.49;100.00;101073.38;4990130;28;20161;-79
2023/10/02 02:45:28;;;;;;;2.15;1.95;;;;;;;15.34;100.00;101023.28;4990292;28;20120;-81
2023/10/02 02:47:55;;;;;;;6.82;2.58;;;;;;;15.62;100.00;101098.84;4989107;28;20465;-80
2023/10/02 02:50:28;;;;;;;0.98;0.50;;;;;;;15.18;100.00;101123.03;4986888;28;20092;-83
2023/10/02 02:55:40;;;;;;;2.42;1.50;;;;;;;14.84;100.00;100950.63;4989490;28;20061;-81
2023/10/02 02:58:06;;;;;;;1.52;1.17;;;;;;;15.75;100.00;101101.38;4987810;28;20042;-82
2023/10/02 03:00:35;;;;;;;0.98;0.93;;;;;;;15.32;100.00;101044.44;4989885;28;20042;-84
2023/10/02 03:03:02;;;;;;;1.23;1.13;;;;;;;15.31;100.00;101041.81;4988901;28;20474;-82
2023/10/02 03:05:41;;;;;;;1.80;1.38;;;;;;;15.44;100.00;101043.47;4989123;28;20053;-83
2023/10/02 03:08:08;;;;;;;1.63;1.23;;;;;;;15.90;100.00;101126.81;4988868;28;20050;-82
2023/10/02 03:10:39;;;;;;;1.38;1.27;;;;;;;15.36;100.00;101061.19;4989236;28;20100;-82
2023/10/02 03:13:08;;;;;;;0.47;0.35;;;;;;;15.52;100.00;101083.06;4985569;28;20041;-83
2023/10/02 03:15:46;;;;;;;4.80;1.48;;;;;;;15.79;100.00;101127.78;4988457;28;20479;-82
2023/10/02 03:18:31;;;;;;;1.25;0.93;;;;;;;15.74;100.00;101128.75;4989111;28;20038;-83
2023/10/02 03:23:38;;;;;;;1.80;0.77;;;;;;;15.27;100.00;101136.16;4994422;28;20150;-81
2023/10/02 03:26:16;;;;;;;1.77;1.65;;;;;;;14.81;100.00;101091.56;4988622;28;20054;-80
2023/10/02 03:28:42;;;;;;;0.90;0.88;;;;;;;14.48;100.00;101056.50;4984068;28;20035;-89
2023/10/02 03:31:16;;;;;;;0.75;0.75;;;;;;;15.15;100.00;101194.44;4992679;28;20069;-80
2023/10/02 03:33:42;;;;;;;2.22;1.02;;;;;;;14.52;100.00;101110.19;4998203;28;20042;-84
2023/10/02 03:36:11;;;;;;;6.03;3.42;;;;;;;14.94;100.00;101187.50;5006587;28;20049;-78
2023/10/02 03:38:48;;;;;;;1.67;0.95;;;;;;;13.83;100.00;101110.44;5000091;28;20117;-85
2023/10/02 03:41:16;;;;;;;5.03;3.67;;;;;;;14.64;100.00;101170.91;4986029;28;20046;-80
2023/10/02 03:43:46;;;;;;;2.10;1.73;;;;;;;14.77;100.00;101209.59;4984692;28;20158;-82
2023/10/02 03:46:23;;;;;;;0.50;0.50;;;;;;;14.65;100.00;101208.75;4984141;28;20047;-82
2023/10/02 03:48:59;;;;;;;2.25;1.10;;;;;;;14.45;100.00;101196.47;4987033;28;20034;-77
2023/10/02 03:51:40;;;;;;;2.88;2.15;;;;;;;14.57;100.00;101203.50;4987648;28;20042;-80
2023/10/02 03:54:17;;;;;;;2.15;1.45;;;;;;;14.52;100.00;101199.97;4988002;28;20042;-82
2023/10/02 03:56:55;;;;;;;4.03;1.50;;;;;;;14.51;100.00;101201.72;4984609;28;20042;-82
2023/10/02 03:59:28;;;;;;;0.60;0.43;;;;;;;13.78;100.00;101107.78;4988034;28;20042;-82
2023/10/02 04:01:57;;;;;;;;;;;;;;;14.24;100.00;101221.19;4985760;28;20053;-80
2023/10/02 04:04:24;;;;;;;4.15;2.10;;;;;;;14.32;100.00;101219.38;4987833;28;19926;-80
2023/10/02 04:06:55;;;;;;;0.55;0.55;;;;;;;14.23;100.00;101202.69;4984018;28;20022;-80
2023/10/02 04:09:23;;;;;;;2.38;1.08;;;;;;;14.50;100.00;101239.59;4985129;28;20059;-82
2023/10/02 04:11:55;;;;;;;4.78;2.75;;;;;;;14.59;100.00;101229.94;4982560;28;20039;-81
2023/10/02 04:14:32;;;;;;;1.23;0.97;;;;;;;14.44;100.00;101221.13;4988160;28;20062;-81
2023/10/02 04:17:14;;;;;;;0.65;0.60;;;;;;;14.45;100.00;101212.31;5019125;28;20057;-82
2023/10/02 04:19:51;;;;;;;1.40;1.30;;;;;;;14.52;100.00;101232.53;4987702;28;20046;-82
2023/10/02 04:22:28;;;;;;;1.65;1.55;;;;;;;13.91;100.00;101132.41;4986497;28;20379;-84
2023/10/02 04:25:04;;;;;;;1.58;1.40;;;;;;;14.36;100.00;101215.00;5017639;28;20522;-82
2023/10/02 04:28:12;;;;;;;5.60;1.50;;;;;;;14.56;100.00;101236.97;4984010;28;20120;-81
2023/10/02 04:30:24;;;;;;;2.60;1.58;;;;;;;14.63;100.00;101258.06;4984707;28;20122;-78
2023/10/02 04:32:51;;;;;;;1.05;0.95;;;;;;;13.92;100.00;101139.44;5009023;28;20049;-83
2023/10/02 04:38:08;;;;;;;1.55;1.42;;;;;;;14.12;100.00;101145.53;4986546;28;20038;-84
2023/10/02 04:40:55;;;;;;;1.25;1.00;;;;;;;14.51;100.00;101232.53;4985344;28;20485;-83
2023/10/02 04:43:25;;;;;;;0.93;0.65;;;;;;;14.67;100.00;101265.09;4978278;28;20042;-80
2023/10/02 04:46:01;;;;;;;1.77;1.50;;;;;;;14.65;100.00;101233.41;4985655;28;20815;-79
2023/10/02 04:48:38;;;;;;;0.77;0.77;;;;;;;14.83;100.00;101250.09;4988689;28;20095;-80
2023/10/02 04:51:08;;;;;;;1.95;1.20;;;;;;;14.15;100.00;101123.53;4996442;28;20073;-80
2023/10/02 04:53:37;;;;;;;0.90;0.75;;;;;;;14.88;100.00;101265.03;4988499;28;20058;-82
2023/10/02 04:58:49;;;;;;;1.17;1.02;;;;;;;14.74;100.00;101229.84;4986669;28;20081;-83
2023/10/02 05:01:29;;;;;;;0.55;0.55;;;;;;;14.83;100.00;101228.94;4987042;28;20101;-80
2023/10/02 05:04:02;;;;;;;1.38;1.25;;;;;;;14.60;100.00;101210.53;4988734;28;20050;-80
2023/10/02 05:06:44;;;;;;;0.70;0.47;;;;;;;14.42;100.00;101153.34;4989376;28;20037;-80
2023/10/02 05:11:52;;;;;;;4.35;1.05;;;;;;;14.81;100.00;101236.00;4990188;28;20518;-79
2023/10/02 05:14:55;;;;;;;1.40;1.20;;;;;;;14.15;100.00;101107.69;4991136;28;20494;-78
2023/10/02 05:17:17;;;;;;;0.82;0.47;;;;;;;14.43;100.00;101152.47;4989516;28;20122;-78
2023/10/02 05:19:56;;;;;;;0.80;0.80;;;;;;;14.31;100.00;101132.28;4980480;28;20043;-80
2023/10/02 05:22:36;;;;;;;2.75;1.90;;;;;;;14.54;100.00;101162.16;4984986;28;20206;-82
2023/10/02 05:25:07;;;;;;;0.47;0.47;;;;;;;15.13;100.00;101259.66;4988943;28;20069;-81
2023/10/02 05:27:37;;;;;;;3.03;1.73;;;;;;;15.16;100.00;101271.06;4987783;28;20038;-78
2023/10/02 05:30:12;;;;;;;1.70;1.58;;;;;;;14.75;100.00;101190.22;4987440;28;20046;-81
2023/10/02 05:32:38;;;;;;;1.00;0.98;;;;;;;14.59;100.00;101175.34;4982737;28;20054;-79
2023/10/02 05:35:16;;;;;;;0.75;0.73;;;;;;;15.19;100.00;101270.16;4984271;28;20050;-85
2023/10/02 05:37:45;;;;;;;2.95;1.58;;;;;;;15.09;100.00;101242.91;4985873;28;20058;-77
2023/10/02 05:40:58;;;;;;;0.82;0.50;;;;;;;15.20;100.00;101261.38;4985786;28;20268;-77
2023/10/02 05:45:39;;;;;;;2.42;2.22;;;;;;;14.75;100.00;101147.09;4984204;28;20109;-77
2023/10/02 05:48:15;;;;;;;2.30;2.10;;;;;;;14.93;100.00;101199.81;4986574;28;20050;-79
2023/10/02 05:50:48;;;;;;;3.13;1.65;;;;;;;15.40;100.00;101296.53;4984608;28;20125;-80
2023/10/02 05:53:21;;;;;;;1.30;1.13;;;;;;;14.89;100.00;101184.88;4986373;28;20050;-80
2023/10/02 05:56:05;;;;;;;0.50;0.50;;;;;;;15.36;100.00;101294.78;4987768;28;20419;-80
2023/10/02 05:58:32;;;;;;;1.90;1.80;;;;;;;15.55;100.00;101297.31;4979103;28;20042;-78
2023/10/02 06:01:03;;;;;;;7.72;1.25;;;;;;;15.64;100.00;101294.59;4981089;28;20061;-83
2023/10/02 06:03:34;;;;;;;0.75;0.63;;;;;;;15.45;100.00;101280.59;4985936;28;20081;-80
2023/10/02 06:06:21;;;;;;;0.68;0.60;;;;;;;15.35;100.00;101226.00;4985037;28;20133;-79
2023/10/02 06:08:48;;;;;;;0.60;0.60;;;;;;;15.71;100.00;101282.22;4981931;28;20513;-79
2023/10/02 06:11:28;;;;;;;4.05;1.60;;;;;;;14.92;100.00;101166.34;4986294;28;20125;-79
2023/10/02 06:14:09;;;;;;;1.00;0.75;;;;;;;14.72;100.00;101158.53;4981780;28;20042;-81
2023/10/02 06:16:41;;;;;;;0.28;0.28;;;;;;;15.83;100.00;101292.75;4983810;28;20046;-82
2023/10/02 06:19:13;;;;;;;1.58;0.85;;;;;;;15.67;100.00;101277.84;5002652;28;20039;-76
2023/10/02 06:21:45;;;;;;;2.35;1.88;;;;;;;15.87;100.00;101299.75;4986961;28;20068;-76
2023/10/02 06:24:18;;;;;;;1.70;0.88;;;;;;;16.06;100.00;101329.63;4984869;28;20049;-76
2023/10/02 06:29:33;;;;;;;2.85;2.25;;;;;;;15.99;100.00;101323.50;4980598;28;20129;-75
2023/10/02 06:31:59;;;;;;;0.52;0.52;;;;;;;15.79;100.00;101283.94;4981285;28;20054;-76
2023/10/02 06:34:36;;;;;;;1.45;1.35;;;;;;;16.20;100.00;101316.25;4984535;28;20046;-75
2023/10/02 06:37:07;;;;;;;5.25;3.05;;;;;;;15.54;100.00;101200.31;4981208;28;20125;-76
2023/10/02 06:39:35;;;;;;;2.13;1.70;;;;;;;15.85;100.00;101288.31;4982738;28;20438;-76
2023/10/02 06:42:15;;;;;;;1.60;1.50;;;;;;;16.18;100.00;101318.94;4980741;28;20060;-75
2023/10/02 06:44:53;;;;;;;2.55;2.35;;;;;;;15.47;100.00;101230.34;4984731;28;20038;-75
2023/10/02 06:47:23;;;;;;;1.80;1.58;;;;;;;16.20;100.00;101316.25;4984763;28;20043;-75
2023/10/02 06:49:51;;;;;;;1.70;1.60;;;;;;;15.72;100.00;101212.56;4982574;28;20109;-74
2023/10/02 06:52:20;;;;;;;1.15;1.05;;;;;;;16.23;100.00;101298.56;4977200;28;20042;-75
2023/10/02 06:54:56;;;;;;;0.73;0.73;;;;;;;16.32;100.00;101321.47;4984575;28;20145;-75
2023/10/02 06:57:24;;;;;;;1.35;1.25;;;;;;;16.33;100.00;101322.31;4980453;28;20050;-74
2023/10/02 06:59:54;;;;;;;2.60;2.38;;;;;;;15.84;100.00;101223.03;4975402;28;20721;-75
2023/10/02 07:02:19;;;;;;;1.15;1.05;;;;;;;16.67;100.00;101325.53;4974843;28;20162;-75
2023/10/02 07:04:47;;;;;;;2.53;1.90;;;;;;;16.75;100.00;101322.78;4983636;28;20066;-76
2023/10/02 07:07:14;;;;;;;1.25;0.90;;;;;;;16.39;100.00;101288.72;4981388;28;20121;-76
2023/10/02 07:09:40;;;;;;;0.30;0.30;;;;;;;16.01;100.00;101239.66;4985695;28;20057;-76
2023/10/02 07:12:08;;;;;;;1.85;1.75;;;;;;;16.07;100.00;101206.06;4974703;28;20804;-76
2023/10/02 07:14:38;;;;;;;1.42;1.33;;;;;;;16.61;100.00;101317.63;4967427;28;20186;-75
2023/10/02 07:17:17;;;;;;;1.65;1.33;;;;;;;16.85;100.00;101345.69;4981470;28;20045;-75
2023/10/02 07:19:49;;;;;;;0.20;0.20;;;;;;;16.46;100.00;101346.03;4985926;28;20053;-75
2023/10/02 07:22:25;;;;;;;0.75;0.70;;;;;;;16.38;100.00;101321.38;4986344;28;20058;-75
2023/10/02 07:24:54;;;;;;;0.93;0.68;;;;;;;16.14;100.00;101341.03;4982457;28;20038;-75
2023/10/02 07:27:24;;;;;;;3.30;1.65;;;;;;;16.31;100.00;101279.94;4988004;28;20383;-75
2023/10/02 07:29:59;;;;;;;1.75;1.65;;;;;;;16.81;100.00;101355.47;4983474;28;20491;-74
2023/10/02 07:32:27;;;;;;;0.77;0.77;;;;;;;16.37;100.00;101276.38;4978853;28;20074;-75
2023/10/02 07:34:54;;;;;;;2.58;2.38;;;;;;;17.01;100.00;101347.25;4983290;28;20060;-78
2023/10/02 07:37:21;;;;;;;0.52;0.32;;;;;;;16.55;100.00;101288.53;4987942;28;20181;-74
2023/10/02 07:39:57;;;;;;;1.00;0.88;;;;;;;16.79;100.00;101290.09;4983473;28;20040;-75
2023/10/02 07:42:28;;;;;;;1.65;1.55;;;;;;;16.67;100.00;101285.78;4987329;28;20734;-76
2023/10/02 07:45:11;;;;;;;0.40;0.40;;;;;;;16.58;100.00;101305.31;4981968;28;20434;-76
2023/10/02 07:47:39;;;;;;;2.53;1.67;;;;;;;16.74;100.00;101344.88;4986214;28;20053;-76
2023/10/02 07:50:23;;;;;;;1.85;1.65;;;;;;;17.14;100.00;101361.28;5015770;28;20066;-74
2023/10/02 07:52:49;;;;;;;2.65;2.45;;;;;;;16.40;100.00;101271.03;4987161;28;20064;-76
2023/10/02 07:55:15;;;;;;;2.85;1.80;;;;;;;17.15;100.00;101370.09;4986319;28;20405;-75
2023/10/02 07:57:41;;;;;;;2.58;2.38;;;;;;;17.03;100.00;101292.44;4985180;28;20484;-75
2023/10/02 08:00:33;;;;;;;2.90;2.70;;;;;;;16.75;100.00;101275.97;4982777;28;20137;-77
2023/10/02 08:02:54;;;;;;;0.77;0.50;;;;;;;17.79;100.00;101378.97;4980080;28;20062;-74
2023/10/02 08:05:20;;;;;;;1.63;1.33;;;;;;;17.89;100.00;101370.91;4975436;28;20046;-74
2023/10/02 08:07:46;;;;;;;1.27;1.17;;;;;;;17.87;100.00;101359.44;4984276;28;20940;-75
2023/10/02 08:10:14;;;;;;;3.67;1.67;;;;;;;17.88;100.00;101390.38;4981055;28;20102;-75
2023/10/02 08:12:54;;;;;;;2.13;1.65;;;;;;;18.08;100.00;101386.56;4984993;28;20157;-75
2023/10/02 08:15:27;;;;;;;0.20;0.20;;;;;;;17.65;100.00;101297.78;4981694;28;20047;-73
2023/10/02 08:20:20;;;;;;;3.65;2.05;;;;;;;17.59;100.00;101265.16;4981470;28;20042;-74
2023/10/02 08:22:46;;;;;;;0.50;0.50;;;;;;;18.09;100.00;101348.47;4976775;28;20668;-74
2023/10/02 08:25:13;;;;;;;1.15;1.05;;;;;;;18.42;100.00;101336.38;4983995;28;20100;-75
2023/10/02 08:27:43;;;;;;;1.27;0.88;;;;;;;18.05;100.00;101390.16;4987270;28;20034;-75
2023/10/02 08:33:09;;;;;;;1.42;1.33;;;;;;;18.24;100.00;101302.16;4986719;28;20076;-74
2023/10/02 08:35:40;;;;;;;2.03;1.27;;;;;;;18.61;100.00;101379.47;4985230;28;20108;-74
2023/10/02 08:38:21;;;;;;;3.03;1.55;;;;;;;17.88;100.00;101304.53;5016482;28;20126;-74
2023/10/02 08:41:00;;;;;;;0.93;0.82;;;;;;;18.53;100.00;101389.38;4986319;28;20134;-77
2023/10/02 08:43:27;;;;;;;0.40;0.40;;;;;;;18.38;100.00;101368.34;5001697;28;20042;-76
2023/10/02 08:45:53;;;;;;;0.45;0.43;;;;;;;18.82;100.00;101372.91;4985695;28;20038;-75
2023/10/02 08:48:25;;;;;;;1.42;1.05;;;;;;;18.47;100.00;101292.03;4987141;28;20141;-77
2023/10/02 08:50:52;;;;;;;3.83;3.47;;;;;;;18.21;100.00;101288.94;4979804;28;20047;-74
2023/10/02 08:53:22;;;;;;;1.70;1.45;;;;;;;18.28;100.00;101303.88;4983219;28;20142;-76
2023/10/02 08:56:21;;;;;;;0.20;0.20;;;;;;;18.94;100.00;101386.00;4986596;28;20133;-76
2023/10/02 08:58:47;;;;;;;0.50;0.47;;;;;;;19.37;100.00;101373.63;4979889;28;20050;-77
2023/10/02 09:01:20;;;;;;;1.55;0.90;;;;;;;19.19;100.00;101377.53;4979116;28;20042;-75
2023/10/02 09:06:43;;;;;;;1.00;0.57;;;;;;;18.99;100.00;101327.41;4985015;28;20053;-76
2023/10/02 09:11:41;;;;;;;1.90;1.40;;;;;;;18.98;100.00;101387.69;4983394;28;20057;-75
2023/10/02 09:17:16;;;;;;;4.88;2.65;;;;;;;18.61;100.00;101289.09;4984613;28;20053;-75
2023/10/02 09:20:07;;;;;;;1.60;1.50;;;;;;;19.08;100.00;101387.50;4975085;28;20069;-75
2023/10/02 09:22:41;;;;;;;1.33;1.23;;;;;;;18.91;100.00;101377.19;4973248;28;20803;-75
2023/10/02 09:25:12;;;;;;;0.40;0.30;;;;;;;20.24;100.00;101376.97;4981393;28;20485;-75
2023/10/02 09:27:57;;;;;;;0.55;0.55;;;;;;;19.91;100.00;101394.66;4991354;28;20414;-72
2023/10/02 09:30:36;;;;;;;0.82;0.63;;;;;;;20.62;100.00;101391.16;4983122;28;20096;-74
2023/10/02 09:33:14;;;;;;;1.83;1.42;;;;;;;20.05;100.00;101316.19;4980639;28;20046;-74
2023/10/02 09:38:10;;;;;;;0.25;0.25;;;;;;;19.78;100.00;101380.75;4984228;28;20054;-72
2023/10/02 09:43:28;;;;;;;1.55;1.45;;;;;;;19.79;100.00;101283.06;4981253;28;20053;-76
2023/10/02 09:46:06;;;;;;;0.52;0.52;;;;;;;19.42;93.87;101313.16;4981351;28;20044;-71
2023/10/02 09:48:47;;;;;;;1.70;1.60;;;;;;;20.36;100.00;101381.13;4983776;28;20049;-74
2023/10/02 09:51:29;;;;;;;0.20;0.20;;;;;;;20.60;94.32;101394.78;4985283;28;20049;-74
2023/10/02 09:54:14;;;;;;;1.17;1.13;;;;;;;20.37;94.69;101291.34;4981520;28;20069;-74
2023/10/02 09:56:51;;;;;;;1.33;0.60;;;;;;;21.14;99.96;101382.66;4983130;28;20060;-73
2023/10/02 09:59:22;;;;;;;0.93;0.93;;;;;;;20.87;89.25;101391.38;4982620;28;20474;-75
2023/10/02 10:02:18;;;;;;;3.60;1.40;;;;;;;20.99;85.74;101384.84;4984658;28;20070;-74
2023/10/02 10:10:47;;;;;;;1.48;1.38;;;;;;;20.03;90.73;101381.03;4983533;28;20466;-75
2023/10/02 10:13:35;;;;;;;1.75;1.52;;;;;;;20.54;88.54;101382.44;4979150;28;20458;-76
2023/10/02 10:16:18;;;;;;;1.25;0.98;;;;;;;19.91;92.51;101394.66;4983310;28;20046;-75
2023/10/02 10:21:56;;;;;;;1.67;1.58;;;;;;;19.32;99.53;101384.38;4983681;28;20164;-74
2023/10/02 10:25:22;;;;;;;0.50;0.50;;;;;;;19.71;96.26;101381.75;4978056;28;20050;-74
2023/10/02 10:27:38;;;;;;;1.70;1.55;;;;;;;19.84;93.71;101373.53;4978131;28;20070;-79
2023/10/02 10:30:19;;;;;;;1.65;1.40;;;;;;;19.42;95.57;101371.72;4983166;28;20125;-76
2023/10/02 10:32:45;;;;;;;0.75;0.75;;;;;;;19.26;100.00;101363.19;4983248;28;20477;-76
2023/10/02 10:35:30;;;;;;;0.20;0.20;;;;;;;19.38;97.99;101288.41;4983165;28;20061;-79
2023/10/02 10:37:56;;;;;;;1.05;0.73;;;;;;;19.59;99.08;101278.16;4983590;28;20371;-76
2023/10/02 10:40:59;;;;;;;0.57;0.57;;;;;;;20.08;94.18;101366.72;4983832;28;20039;-77
2023/10/02 10:46:18;;;;;;;2.88;2.00;;;;;;;20.08;89.03;101345.41;4963485;28;20058;-76
2023/10/02 10:48:48;;;;;;;1.42;1.30;;;;;;;19.54;89.03;101267.63;4986324;28;20566;-77
2023/10/02 10:51:20;;;;;;;1.23;0.95;;;;;;;20.31;85.17;101358.16;4987962;28;20046;-77
2023/10/02 10:54:00;;;;;;;0.50;0.40;;;;;;;20.40;83.47;101353.47;4986459;28;20054;-76
2023/10/02 10:56:27;;;;;;;1.13;1.05;;;;;;;20.29;80.75;101338.66;4983506;28;20122;-78
2023/10/02 10:59:02;;;;;;;4.82;2.58;;;;;;;20.52;82.42;101344.28;4987080;28;20570;-76
2023/10/02 11:01:27;;;;;;;2.08;1.88;;;;;;;20.24;81.69;101314.81;4988617;28;20046;-77
2023/10/02 11:04:01;;;;;;;0.17;0.17;;;;;;;20.46;83.53;101317.75;4987959;28;20109;-76
2023/10/02 11:06:28;;;;;;;3.75;1.25;;;;;;;21.16;79.16;101328.28;4989127;28;20495;-77
2023/10/02 11:09:15;;;;;;;2.08;1.05;;;;;;;21.41;76.47;101341.84;4988215;28;20598;-76
2023/10/02 11:11:50;;;;;;;0.57;0.40;;;;;;;20.84;76.28;101292.75;4983461;28;20406;-78
2023/10/02 11:14:34;;;;;;;8.23;2.08;;;;;;;20.06;81.45;101267.31;4987347;28;20046;-77
2023/10/02 11:17:11;;;;;;;1.98;1.23;;;;;;;19.71;85.14;101221.13;4988524;28;20046;-78
2023/10/02 11:19:46;;;;;;;0.30;0.30;;;;;;;20.02;84.53;101271.84;4987191;28;20077;-77
2023/10/02 11:22:17;;;;;;;0.10;0.10;;;;;;;20.52;81.65;101306.94;4977717;28;20471;-77
2023/10/02 11:25:17;;;;;;;0.73;0.50;;;;;;;20.47;85.95;101322.19;4986226;28;20117;-78
2023/10/02 11:27:55;;;;;;;1.00;0.90;;;;;;;20.29;81.66;101314.69;4987075;28;20042;-78
2023/10/02 11:30:31;;;;;;;5.15;1.42;;;;;;;19.79;85.32;101307.03;4990186;28;20174;-77
2023/10/02 11:33:07;;;;;;;2.00;1.85;;;;;;;19.92;87.99;101315.59;4983276;28;20462;-77
2023/10/02 11:35:39;;;;;;;2.25;2.08;;;;;;;20.38;83.64;101312.66;4988077;28;20845;-79
2023/10/02 11:38:07;;;;;;;1.15;1.05;;;;;;;20.71;85.90;101309.16;4989335;28;20136;-78
2023/10/02 11:40:34;;;;;;;0.73;0.73;;;;;;;20.39;83.93;101285.09;4989069;28;20659;-78
2023/10/02 11:42:59;;;;;;;2.42;1.30;;;;;;;20.05;85.56;101292.22;4983844;28;20022;-82
2023/10/02 11:45:29;;;;;;;1.10;1.00;;;;;;;20.21;82.83;101213.63;4988947;28;20175;-82
2023/10/02 11:47:55;;;;;;;0.40;0.40;;;;;;;20.57;80.70;101246.41;4990146;28;20443;-84
2023/10/02 11:50:21;;;;;;;1.23;1.13;;;;;;;21.07;84.57;101308.13;4986439;28;20042;-82
2023/10/02 11:52:47;;;;;;;0.43;0.43;;;;;;;20.82;79.53;101206.56;4983897;28;20390;-83
2023/10/02 11:55:17;;;;;;;1.25;1.15;;;;;;;20.93;81.21;101221.34;4985757;28;20058;-77
2023/10/02 11:57:44;;;;;;;0.57;0.47;;;;;;;21.14;80.90;101289.22;4987160;28;20037;-79
2023/10/02 12:00:12;;;;;;;4.45;1.30;;;;;;;21.24;80.95;101286.25;4984122;28;20113;-80
2023/10/02 12:02:39;;;;;;;1.08;0.47;;;;;;;21.00;78.91;101210.47;4984233;28;20065;-84
2023/10/02 12:05:07;;;;;;;1.60;1.50;;;;;;;21.44;78.87;101277.63;4986948;28;20062;-84
2023/10/02 12:07:33;;;;;;;0.85;0.85;;;;;;;21.17;80.54;101252.66;4980787;28;20062;-81
2023/10/02 12:09:58;;;;;;;0.45;0.45;;;;;;;21.23;79.63;101280.94;4983656;28;20034;-80
2023/10/02 12:12:25;;;;;;;1.17;1.08;;;;;;;20.57;80.04;101192.19;4991886;28;20463;-84
2023/10/02 12:14:51;;;;;;;0.55;0.52;;;;;;;20.79;78.42;101204.00;4987286;28;20045;-81
2023/10/02 12:17:17;;;;;;;4.05;1.63;;;;;;;21.23;79.91;101257.78;4985531;28;20093;-80
2023/10/02 12:19:44;;;;;;;1.17;1.05;;;;;;;20.44;80.96;101205.84;4982601;28;20717;-81
2023/10/02 12:22:09;;;;;;;0.40;0.40;;;;;;;21.06;87.94;101260.97;4987372;28;20038;-83
2023/10/02 12:24:36;;;;;;;0.52;0.52;;;;;;;21.41;87.80;101275.06;4987940;28;20042;-82
2023/10/02 12:27:04;;;;;;;0.63;0.63;;;;;;;21.13;84.78;101277.69;4986510;28;20050;-82
2023/10/02 12:29:32;;;;;;;0.93;0.90;;;;;;;20.95;79.96;101204.38;4988068;28;20054;-80
2023/10/02 12:32:00;;;;;;;0.20;0.20;;;;;;;20.39;82.82;101276.19;4987873;28;20038;-82
2023/10/02 12:34:27;;;;;;;3.78;3.08;;;;;;;20.51;87.23;101211.88;4987502;28;20058;-84
2023/10/02 12:36:53;;;;;;;1.08;0.98;;;;;;;21.26;84.52;101196.31;4987264;28;20030;-81
2023/10/02 12:39:19;;;;;;;1.27;1.17;;;;;;;21.90;85.08;101269.94;4987671;28;20042;-82